Portada
METAR-TAF:

METAR-TAF

Aeropuertos :

Jubail, Arabia Saudita

latitud: 27-02-20N, longitud: 49-24-18E, altitud: 8 m

Observación

El informe se hizo hace 1 hora y 16 minutos, a las 02:00 UTC
Viento 9 kt del oeste
Temperatura 10°C
Humedad 87%
Presión 1017 hPa
Visibilidad: 9000 m

METAR: OEJB 280200Z AUTO 26009KT 9000 NCD 10/08 Q1017 NOSIG

Hora: 06:16 (03:16 UTC)


TAF: falta

Observaciones y pronósticos meteorológicos de más de 4000 aeropuertos (mensajes METAR y TAF).

Los puntos amarillos y rojos representan las estaciones disponibles.

Ponga el ratón en el punto deseado para ver el nombre de la estación.

Haga clic para ver las observaciones y los pronósticos meteorológicos.

Para cambiar el mapa : haga clic en los botones verdes con una cruz de color negro para hacer un zoom, en el botón verde con un guión para alejar o en las flechas verdes para mapas adyacentes.


METAR-TAF: